Time;durP1;ratioP1;P1;durP2;ratioP2;P2;SDS_P1;SDS_P2;PMS_P1;PMS_P2;Temp;Humidity;BMP_temperature;BMP_pressure;BME280_temperature;BME280_humidity;BME280_pressure;Samples;Min_cycle;Max_cycle;Signal;HPM_P1;HPM_P2
2023/03/28 00:01:43;;;;;;;11.55;2.92;;;1.20;99.90;;;;;;5014898;28;20057;-82
2023/03/28 00:04:10;;;;;;;14.88;3.70;;;1.00;99.90;;;;;;5002921;28;20037;-84
2023/03/28 00:06:37;;;;;;;9.57;2.97;;;1.10;99.90;;;;;;5030391;28;20156;-84
2023/03/28 00:09:04;;;;;;;16.90;3.55;;;0.90;99.90;;;;;;5022389;28;20093;-83
2023/03/28 00:11:30;;;;;;;7.82;2.75;;;0.80;99.90;;;;;;5009158;28;20041;-83
2023/03/28 00:13:59;;;;;;;10.30;3.33;;;1.00;99.90;;;;;;5013710;28;20059;-83
2023/03/28 00:16:26;;;;;;;7.88;2.33;;;1.10;99.90;;;;;;5004012;28;20030;-84
2023/03/28 00:18:51;;;;;;;7.75;2.38;;;1.00;99.90;;;;;;5009817;28;20036;-84
2023/03/28 00:21:22;;;;;;;12.52;3.28;;;1.10;99.90;;;;;;5006609;28;20045;-84
2023/03/28 00:23:51;;;;;;;5.97;2.20;;;1.20;99.90;;;;;;5023469;28;20025;-83
2023/03/28 00:26:17;;;;;;;12.18;2.13;;;1.20;99.90;;;;;;5024256;28;20026;-84
2023/03/28 00:28:45;;;;;;;13.23;3.10;;;1.50;99.90;;;;;;4996795;28;20022;-83
2023/03/28 00:31:10;;;;;;;10.00;2.85;;;1.10;99.90;;;;;;5020178;28;20053;-84
2023/03/28 00:33:36;;;;;;;5.53;2.40;;;1.10;99.90;;;;;;5006043;28;20065;-84
2023/03/28 00:36:02;;;;;;;13.70;3.03;;;1.10;99.90;;;;;;5001985;28;20045;-80
2023/03/28 00:38:27;;;;;;;9.18;3.10;;;1.20;99.90;;;;;;5021370;28;20579;-80
2023/03/28 00:40:57;;;;;;;15.40;3.30;;;1.00;99.90;;;;;;5007571;28;20036;-80
2023/03/28 00:43:42;;;;;;;13.32;3.47;;;1.00;99.90;;;;;;5019089;28;20068;-80
2023/03/28 00:46:32;;;;;;;12.97;2.47;;;0.80;99.90;;;;;;5022756;28;20042;-80
2023/03/28 00:49:13;;;;;;;15.70;3.50;;;0.60;99.90;;;;;;5008043;28;20485;-80
2023/03/28 00:51:44;;;;;;;8.65;3.08;;;0.90;99.90;;;;;;5017033;28;20076;-80
2023/03/28 00:54:11;;;;;;;8.50;2.58;;;1.10;99.90;;;;;;5021209;28;20029;-80
2023/03/28 00:56:37;;;;;;;6.88;2.30;;;0.90;99.90;;;;;;5008849;28;20115;-80
2023/03/28 00:59:05;;;;;;;7.68;2.22;;;1.00;99.90;;;;;;5032605;28;20124;-80
2023/03/28 01:01:31;;;;;;;11.73;3.47;;;1.10;99.90;;;;;;5009742;28;20552;-79
2023/03/28 01:04:01;;;;;;;10.52;2.58;;;1.20;99.90;;;;;;5008434;28;20034;-80
2023/03/28 01:06:28;;;;;;;11.82;3.63;;;1.10;99.90;;;;;;5021836;28;20104;-80
2023/03/28 01:08:54;;;;;;;9.88;2.67;;;1.10;99.90;;;;;;4997498;28;20034;-80
2023/03/28 01:11:20;;;;;;;11.70;2.88;;;1.00;99.90;;;;;;5019405;28;20094;-80
2023/03/28 01:13:52;;;;;;;16.65;3.42;;;1.10;99.90;;;;;;5014017;28;20520;-80
2023/03/28 01:16:19;;;;;;;11.65;2.92;;;0.80;99.90;;;;;;5004224;28;20034;-79
2023/03/28 01:18:50;;;;;;;12.90;2.88;;;0.90;99.90;;;;;;5012358;28;20045;-78
2023/03/28 01:21:47;;;;;;;7.05;1.88;;;0.90;99.90;;;;;;4997879;28;20534;-79
2023/03/28 01:24:22;;;;;;;10.05;2.97;;;0.90;99.90;;;;;;4976182;28;20112;-79
2023/03/28 01:26:58;;;;;;;15.73;2.40;;;0.50;99.90;;;;;;5037519;28;20026;-78
2023/03/28 01:29:38;;;;;;;;;;;0.90;99.90;;;;;;5023766;28;20064;-78
2023/03/28 01:32:21;;;;;;;6.40;2.17;;;0.90;99.90;;;;;;5022484;28;20372;-78
2023/03/28 01:35:01;;;;;;;9.00;2.38;;;0.80;99.90;;;;;;5021497;28;20030;-80
2023/03/28 01:37:41;;;;;;;7.38;2.40;;;0.60;99.90;;;;;;5030115;28;20036;-80
2023/03/28 01:40:10;;;;;;;6.30;2.22;;;0.80;99.90;;;;;;4997432;28;20493;-80
2023/03/28 01:43:02;;;;;;;12.82;3.30;;;0.70;99.90;;;;;;5016978;28;20386;-79
2023/03/28 01:45:48;;;;;;;10.05;2.70;;;0.70;99.90;;;;;;5017374;28;20037;-79
2023/03/28 01:48:32;;;;;;;4.72;1.90;;;0.70;99.90;;;;;;5018856;28;20482;-79
2023/03/28 01:51:04;;;;;;;8.65;2.08;;;0.80;99.90;;;;;;5023257;28;20041;-79
2023/03/28 01:53:54;;;;;;;12.93;3.15;;;0.70;99.90;;;;;;5032321;28;20017;-79
2023/03/28 01:56:29;;;;;;;14.93;3.92;;;0.90;99.90;;;;;;5016973;28;20038;-80
2023/03/28 01:59:06;;;;;;;7.43;2.23;;;0.60;99.90;;;;;;5025076;28;20104;-79
2023/03/28 02:01:45;;;;;;;10.88;3.22;;;0.50;99.90;;;;;;5017694;28;20276;-79
2023/03/28 02:04:12;;;;;;;12.20;2.97;;;0.30;99.90;;;;;;4989263;28;20049;-79
2023/03/28 02:06:37;;;;;;;13.25;2.40;;;0.80;99.90;;;;;;5006863;28;20023;-79
2023/03/28 02:09:03;;;;;;;13.48;3.10;;;0.40;99.90;;;;;;5004103;28;20029;-79
2023/03/28 02:11:28;;;;;;;3.53;1.80;;;0.50;99.90;;;;;;5009178;28;20029;-79
2023/03/28 02:13:58;;;;;;;8.68;2.65;;;0.40;99.90;;;;;;5011790;28;20045;-79
2023/03/28 02:16:24;;;;;;;10.20;2.67;;;0.20;99.90;;;;;;5008298;28;20033;-83
2023/03/28 02:18:54;;;;;;;6.15;1.77;;;0.30;99.90;;;;;;4998058;28;20055;-83
2023/03/28 02:22:00;;;;;;;6.53;2.50;;;0.20;99.90;;;;;;5044489;28;20132;-83
2023/03/28 02:24:25;;;;;;;4.28;1.92;;;0.70;99.90;;;;;;5003675;28;20770;-83
2023/03/28 02:26:52;;;;;;;4.30;1.65;;;0.40;99.90;;;;;;5012822;28;20025;-83
2023/03/28 02:29:18;;;;;;;10.95;2.13;;;1.10;99.90;;;;;;5012149;28;20038;-84
2023/03/28 02:31:43;;;;;;;7.65;2.72;;;0.60;99.90;;;;;;4991220;28;20044;-82
2023/03/28 02:34:09;;;;;;;13.48;3.13;;;0.50;99.90;;;;;;5021330;28;20087;-82
2023/03/28 02:37:03;;;;;;;6.95;1.80;;;0.60;99.90;;;;;;5024397;28;20604;-82
2023/03/28 02:39:50;;;;;;;6.32;2.55;;;0.80;99.90;;;;;;5023073;28;20036;-82
2023/03/28 02:42:43;;;;;;;10.57;2.58;;;0.50;99.90;;;;;;5025705;28;20038;-83
2023/03/28 02:45:22;;;;;;;7.60;2.80;;;0.70;99.90;;;;;;5018779;28;20032;-83
2023/03/28 02:48:01;;;;;;;11.43;3.10;;;0.90;99.90;;;;;;5020550;28;20124;-79
2023/03/28 02:50:36;;;;;;;14.70;3.55;;;0.10;99.90;;;;;;5020525;28;20030;-79
2023/03/28 02:53:26;;;;;;;14.60;3.47;;;0.00;99.90;;;;;;5015751;28;20096;-79
2023/03/28 02:56:43;;;;;;;5.47;1.70;;;0.10;99.90;;;;;;5018511;28;20069;-79
2023/03/28 02:59:15;;;;;;;5.00;2.08;;;0.20;99.90;;;;;;4947420;28;20043;-79
2023/03/28 03:01:41;;;;;;;8.93;2.75;;;0.30;99.90;;;;;;4949568;28;20041;-79
2023/03/28 03:04:07;;;;;;;9.55;2.78;;;0.30;99.90;;;;;;4999071;28;20033;-79
2023/03/28 03:06:34;;;;;;;16.88;4.10;;;0.20;99.90;;;;;;5035209;28;20087;-79
2023/03/28 03:09:00;;;;;;;18.75;3.47;;;0.00;99.90;;;;;;5023528;28;20030;-79
2023/03/28 03:11:27;;;;;;;10.63;2.60;;;0.00;99.90;;;;;;5008514;28;20037;-79
2023/03/28 03:13:53;;;;;;;7.75;2.65;;;-0.20;99.90;;;;;;5010800;28;20120;-79
2023/03/28 03:16:19;;;;;;;11.43;2.67;;;0.00;99.90;;;;;;5019228;28;20061;-79
2023/03/28 03:18:45;;;;;;;10.10;3.15;;;-0.20;99.90;;;;;;5009214;28;20030;-79
2023/03/28 03:21:10;;;;;;;8.77;2.88;;;0.00;99.90;;;;;;5012924;28;20032;-79
2023/03/28 03:23:36;;;;;;;10.30;4.13;;;0.00;99.90;;;;;;5013034;28;20171;-79
2023/03/28 03:26:02;;;;;;;6.97;3.10;;;0.00;99.90;;;;;;5034931;28;20034;-79
2023/03/28 03:28:27;;;;;;;6.10;2.67;;;-0.30;99.90;;;;;;5038002;28;20034;-79
2023/03/28 03:30:53;;;;;;;11.35;4.35;;;-0.20;99.90;;;;;;5024985;28;20049;-79
2023/03/28 03:33:18;;;;;;;9.20;3.70;;;-0.20;99.90;;;;;;5033600;28;20030;-79
2023/03/28 03:35:47;;;;;;;9.05;3.03;;;-0.10;99.90;;;;;;5011542;28;20083;-79
2023/03/28 03:38:12;;;;;;;8.55;3.13;;;0.00;99.90;;;;;;5019206;28;20029;-79
2023/03/28 03:40:38;;;;;;;12.45;3.92;;;0.00;99.90;;;;;;5019979;28;20133;-79
2023/03/28 03:43:04;;;;;;;10.57;3.50;;;-0.10;99.90;;;;;;5017614;28;20034;-79
2023/03/28 03:45:29;;;;;;;9.45;3.03;;;-0.30;99.90;;;;;;5024218;28;20025;-79
2023/03/28 03:47:55;;;;;;;10.65;2.85;;;-0.30;99.90;;;;;;5010672;28;20523;-79
2023/03/28 03:50:21;;;;;;;12.35;3.47;;;1.00;99.90;;;;;;5008943;28;20026;-79
2023/03/28 03:52:46;;;;;;;7.43;3.67;;;-0.20;99.90;;;;;;5012382;28;20037;-79
2023/03/28 03:55:13;;;;;;;10.32;4.53;;;-0.30;99.90;;;;;;5019895;28;20165;-79
2023/03/28 03:57:38;;;;;;;8.93;2.70;;;-0.40;99.90;;;;;;5019072;28;20033;-79
2023/03/28 04:00:10;;;;;;;9.30;3.53;;;-0.40;99.90;;;;;;5028081;28;20041;-79
2023/03/28 04:02:37;;;;;;;13.00;4.50;;;-0.40;99.90;;;;;;5025524;28;20375;-79
2023/03/28 04:05:03;;;;;;;5.05;2.72;;;-0.30;99.90;;;;;;5009445;28;20041;-79
2023/03/28 04:07:29;;;;;;;15.48;5.00;;;-0.20;99.90;;;;;;5019750;28;20029;-79
2023/03/28 04:09:55;;;;;;;13.93;4.60;;;-0.30;99.90;;;;;;5014172;28;20175;-79
2023/03/28 04:12:21;;;;;;;16.25;4.45;;;0.20;99.90;;;;;;5011887;28;20049;-78
2023/03/28 04:14:47;;;;;;;9.07;3.08;;;-0.10;99.90;;;;;;4999315;28;20038;-79
2023/03/28 04:17:13;;;;;;;10.20;2.70;;;-0.40;99.90;;;;;;5022192;28;20489;-78
2023/03/28 04:19:39;;;;;;;7.80;3.42;;;-0.60;99.90;;;;;;5006944;28;20049;-79
2023/03/28 04:22:06;;;;;;;11.50;4.25;;;-0.40;99.90;;;;;;5019322;28;20426;-79
2023/03/28 04:24:32;;;;;;;9.57;3.45;;;-0.70;99.90;;;;;;5012909;28;20040;-80
2023/03/28 04:26:58;;;;;;;5.30;2.50;;;-0.70;99.90;;;;;;5018567;28;20035;-80
2023/03/28 04:29:29;;;;;;;7.60;3.53;;;-0.50;99.90;;;;;;5009181;28;20120;-79
2023/03/28 04:31:56;;;;;;;10.60;3.33;;;-0.30;99.90;;;;;;5010517;28;20041;-79
2023/03/28 04:34:28;;;;;;;9.27;3.47;;;-0.60;99.90;;;;;;5005000;28;20528;-79
2023/03/28 04:37:00;;;;;;;13.65;4.85;;;-0.60;99.90;;;;;;5021555;28;20030;-79
2023/03/28 04:39:29;;;;;;;16.38;6.28;;;-0.50;99.90;;;;;;5023385;28;20041;-80
2023/03/28 04:41:54;;;;;;;7.68;3.28;;;-0.70;99.90;;;;;;5020205;28;20030;-80
2023/03/28 04:44:21;;;;;;;10.48;3.38;;;-0.70;99.90;;;;;;5025436;28;20065;-80
2023/03/28 04:46:50;;;;;;;20.02;6.63;;;-0.60;99.90;;;;;;5003529;28;20053;-81
2023/03/28 04:49:16;;;;;;;12.50;3.40;;;-0.70;99.90;;;;;;5021213;28;20048;-80
2023/03/28 04:51:42;;;;;;;18.52;6.90;;;-0.70;99.90;;;;;;5024749;28;20164;-79
2023/03/28 04:54:07;;;;;;;23.20;6.07;;;-0.70;99.90;;;;;;5014757;28;20546;-80
2023/03/28 04:56:33;;;;;;;7.72;3.47;;;-1.20;99.90;;;;;;5011123;28;20048;-80
2023/03/28 04:58:58;;;;;;;22.88;7.35;;;-0.70;99.90;;;;;;5032972;28;20042;-79
2023/03/28 05:01:26;;;;;;;9.10;4.68;;;-0.90;99.90;;;;;;5011278;28;20041;-79
2023/03/28 05:03:51;;;;;;;17.60;6.68;;;-0.60;99.90;;;;;;5017768;28;20037;-79
2023/03/28 05:06:17;;;;;;;16.30;6.07;;;-0.50;99.90;;;;;;5001477;28;20037;-80
2023/03/28 05:08:43;;;;;;;21.95;5.93;;;-0.80;99.90;;;;;;5006171;28;20037;-79
2023/03/28 05:11:09;;;;;;;9.95;4.57;;;-0.80;99.90;;;;;;5001249;28;20045;-79
2023/03/28 05:13:35;;;;;;;10.32;5.18;;;0.20;99.90;;;;;;5015366;28;20029;-79
2023/03/28 05:16:00;;;;;;;9.52;3.67;;;-0.90;99.90;;;;;;5015171;28;20053;-80
2023/03/28 05:18:26;;;;;;;16.23;5.15;;;-0.70;99.90;;;;;;5033520;28;20054;-79
2023/03/28 05:20:51;;;;;;;12.50;4.85;;;-0.60;99.90;;;;;;5005536;28;20029;-80
2023/03/28 05:23:17;;;;;;;19.58;5.78;;;-0.80;99.90;;;;;;5006944;28;20104;-80
2023/03/28 05:25:43;;;;;;;16.48;5.60;;;-1.10;99.90;;;;;;5010853;28;20037;-78
2023/03/28 05:28:08;;;;;;;14.05;5.35;;;-0.80;99.90;;;;;;5000287;28;20514;-80
2023/03/28 05:30:34;;;;;;;8.88;4.13;;;-0.80;99.90;;;;;;5010783;28;20089;-80
2023/03/28 05:33:00;;;;;;;12.75;4.68;;;-0.70;99.90;;;;;;5005761;28;20098;-81
2023/03/28 05:35:25;;;;;;;10.43;5.38;;;-0.60;99.90;;;;;;5007377;28;20104;-80
2023/03/28 05:37:51;;;;;;;16.75;6.50;;;0.00;99.90;;;;;;5030028;28;20041;-80
2023/03/28 05:40:17;;;;;;;10.63;3.92;;;-0.70;99.90;;;;;;5024453;28;20033;-80
2023/03/28 05:42:42;;;;;;;7.85;4.43;;;-0.60;99.90;;;;;;4998269;28;20034;-79
2023/03/28 05:45:08;;;;;;;7.50;5.68;;;-0.50;99.90;;;;;;5002324;28;20022;-79
2023/03/28 05:47:34;;;;;;;11.02;4.93;;;-0.70;99.90;;;;;;5008979;28;20397;-80
2023/03/28 05:50:00;;;;;;;10.88;4.75;;;-0.80;99.90;;;;;;5012919;28;20046;-79
2023/03/28 05:52:25;;;;;;;13.68;5.90;;;-0.60;99.90;;;;;;4990732;28;20038;-79
2023/03/28 05:54:51;;;;;;;15.05;6.60;;;-0.30;99.90;;;;;;5000954;28;20036;-79
2023/03/28 05:57:17;;;;;;;15.48;5.85;;;-0.50;99.90;;;;;;5030176;28;20034;-79
2023/03/28 05:59:43;;;;;;;10.88;4.75;;;-0.30;99.90;;;;;;5002915;28;20034;-79
2023/03/28 06:02:12;;;;;;;13.60;7.43;;;-0.40;99.90;;;;;;5005501;28;20080;-78
2023/03/28 06:04:38;;;;;;;11.75;4.57;;;-0.50;99.90;;;;;;5001225;28;20040;-78
2023/03/28 06:07:05;;;;;;;19.67;7.65;;;-0.30;99.90;;;;;;5004842;28;20030;-78
2023/03/28 06:09:30;;;;;;;10.98;6.78;;;-0.30;99.90;;;;;;5013608;28;20520;-78
2023/03/28 06:11:57;;;;;;;12.10;6.00;;;-0.40;99.90;;;;;;5020018;28;20029;-78
2023/03/28 06:14:22;;;;;;;16.30;6.75;;;-0.40;99.90;;;;;;5021871;28;20037;-79
2023/03/28 06:16:48;;;;;;;15.30;7.15;;;-0.30;99.90;;;;;;5014429;28;20112;-80
2023/03/28 06:19:13;;;;;;;12.38;7.30;;;0.10;99.90;;;;;;5016776;28;20058;-79
2023/03/28 06:21:39;;;;;;;17.27;8.00;;;-0.40;99.90;;;;;;4992929;28;20087;-78
2023/03/28 06:24:05;;;;;;;13.60;6.93;;;-0.40;99.90;;;;;;5028785;28;20088;-79
2023/03/28 06:26:30;;;;;;;14.90;8.38;;;0.00;99.90;;;;;;5003623;28;20026;-79
2023/03/28 06:28:56;;;;;;;12.70;7.03;;;-0.10;99.90;;;;;;5015045;28;20068;-78
2023/03/28 06:31:21;;;;;;;20.33;9.45;;;0.00;99.90;;;;;;5002985;28;20038;-78
2023/03/28 06:33:47;;;;;;;9.63;6.63;;;0.10;99.90;;;;;;5004453;28;20029;-78
2023/03/28 06:36:12;;;;;;;15.77;7.10;;;0.00;99.90;;;;;;5007542;28;20109;-79
2023/03/28 06:38:38;;;;;;;19.05;8.07;;;0.30;99.90;;;;;;5025337;28;20136;-79
2023/03/28 06:41:04;;;;;;;24.17;8.73;;;0.30;99.90;;;;;;5028670;28;20037;-79
2023/03/28 06:43:32;;;;;;;18.95;7.28;;;0.60;99.90;;;;;;5011698;28;20026;-79
2023/03/28 06:45:58;;;;;;;18.50;7.70;;;0.40;99.90;;;;;;5027385;28;20164;-79
2023/03/28 06:48:29;;;;;;;16.75;7.22;;;0.70;99.90;;;;;;5007511;28;20089;-79
2023/03/28 06:50:55;;;;;;;17.95;7.20;;;0.90;99.90;;;;;;5039909;28;20501;-79
2023/03/28 06:53:21;;;;;;;16.92;7.00;;;0.80;99.90;;;;;;5024588;28;20033;-79
2023/03/28 06:55:49;;;;;;;18.70;6.70;;;0.90;99.90;;;;;;5038294;28;20030;-78
2023/03/28 06:58:15;;;;;;;15.13;5.90;;;1.30;99.90;;;;;;5026018;28;20034;-78
2023/03/28 07:00:40;;;;;;;17.33;6.80;;;1.00;99.90;;;;;;5012783;28;20494;-80
2023/03/28 07:03:06;;;;;;;14.15;6.60;;;1.20;99.90;;;;;;5039635;28;20058;-79
2023/03/28 07:05:36;;;;;;;14.85;7.00;;;1.30;99.90;;;;;;5011407;28;20052;-79
2023/03/28 07:08:01;;;;;;;17.02;6.45;;;1.50;99.90;;;;;;5009999;28;20026;-78
2023/03/28 07:10:27;;;;;;;11.80;4.85;;;1.90;99.90;;;;;;5009508;28;20041;-79
2023/03/28 07:12:52;;;;;;;12.30;5.32;;;1.30;99.90;;;;;;5030978;28;20033;-78
2023/03/28 07:15:18;;;;;;;12.95;4.82;;;1.70;99.90;;;;;;5013944;28;20029;-80
2023/03/28 07:17:44;;;;;;;14.05;4.78;;;1.50;99.90;;;;;;4999497;28;20044;-80
2023/03/28 07:20:09;;;;;;;13.77;2.08;;;1.60;99.90;;;;;;5010374;28;20034;-78
2023/03/28 07:22:35;;;;;;;19.05;5.55;;;1.90;99.90;;;;;;5046280;28;20139;-79
2023/03/28 07:25:00;;;;;;;11.13;5.25;;;1.90;99.90;;;;;;5044327;28;20034;-78
2023/03/28 07:27:26;;;;;;;19.23;6.03;;;2.10;99.90;;;;;;5020360;28;20041;-79
2023/03/28 07:29:52;;;;;;;13.50;5.07;;;3.20;99.90;;;;;;5022337;28;20029;-78
2023/03/28 07:32:17;;;;;;;13.50;4.50;;;2.40;99.90;;;;;;5017925;28;20101;-79
2023/03/28 07:34:43;;;;;;;8.80;4.90;;;2.40;99.90;;;;;;5015409;28;20040;-80
2023/03/28 07:37:08;;;;;;;16.75;6.10;;;2.40;99.90;;;;;;5033759;28;20030;-78
2023/03/28 07:39:38;;;;;;;2.47;1.58;;;2.60;99.90;;;;;;5024570;28;20065;-79
2023/03/28 07:42:07;;;;;;;12.40;5.22;;;2.30;99.90;;;;;;5019666;28;20034;-79
2023/03/28 07:44:32;;;;;;;14.77;5.00;;;2.30;99.90;;;;;;5035183;28;20052;-80
2023/03/28 07:46:58;;;;;;;17.50;4.93;;;2.60;99.90;;;;;;5022956;28;20502;-79
2023/03/28 07:49:23;;;;;;;10.77;4.28;;;4.30;99.90;;;;;;5037478;28;20520;-77
2023/03/28 07:51:51;;;;;;;16.73;6.00;;;2.60;99.90;;;;;;5031754;28;20056;-79
2023/03/28 07:54:17;;;;;;;14.02;5.43;;;2.70;99.90;;;;;;5040996;28;20037;-79
2023/03/28 07:56:45;;;;;;;17.42;6.45;;;3.30;99.90;;;;;;5011125;28;20043;-78
2023/03/28 07:59:12;;;;;;;12.23;6.68;;;3.70;99.90;;;;;;5034926;28;20050;-79
2023/03/28 08:01:39;;;;;;;20.77;8.82;;;3.80;99.90;;;;;;5041593;28;20025;-76
2023/03/28 08:04:05;;;;;;;13.60;7.32;;;3.50;99.90;;;;;;5016480;28;20045;-81
2023/03/28 08:06:33;;;;;;;12.23;5.97;;;4.20;99.90;;;;;;5018987;28;20029;-81
2023/03/28 08:08:59;;;;;;;17.45;6.78;;;3.90;99.90;;;;;;5030412;28;20034;-78
2023/03/28 08:11:26;;;;;;;14.95;6.63;;;3.80;99.90;;;;;;5007541;28;20037;-79
2023/03/28 08:13:51;;;;;;;17.05;7.47;;;4.20;99.90;;;;;;4999547;28;20093;-79
2023/03/28 08:16:17;;;;;;;17.50;7.07;;;4.40;99.90;;;;;;5025877;28;20064;-79
2023/03/28 08:18:42;;;;;;;11.75;4.18;;;4.80;99.90;;;;;;4999769;28;20022;-79
2023/03/28 08:21:08;;;;;;;16.35;6.00;;;4.70;99.90;;;;;;5012247;28;20030;-77
2023/03/28 08:23:34;;;;;;;9.27;3.95;;;5.00;99.90;;;;;;5044977;28;20038;-80
2023/03/28 08:26:03;;;;;;;15.32;4.95;;;5.30;99.90;;;;;;5022592;28;20145;-78
2023/03/28 08:28:30;;;;;;;19.65;6.25;;;5.30;99.90;;;;;;5023149;28;20041;-79
2023/03/28 08:30:55;;;;;;;10.20;4.60;;;5.30;99.90;;;;;;5023414;28;21597;-80
2023/03/28 08:33:21;;;;;;;14.18;5.63;;;5.70;99.90;;;;;;5024455;28;20049;-80
2023/03/28 08:35:47;;;;;;;7.47;3.72;;;5.40;99.90;;;;;;5010113;28;20561;-80
2023/03/28 08:38:14;;;;;;;10.52;3.20;;;5.80;99.90;;;;;;5024633;28;20397;-79
2023/03/28 08:40:39;;;;;;;6.68;3.20;;;7.20;99.90;;;;;;5008276;28;20143;-79
2023/03/28 08:43:07;;;;;;;11.40;4.32;;;5.90;99.90;;;;;;5005628;28;20655;-77
2023/03/28 08:45:51;;;;;;;9.57;3.15;;;5.70;99.90;;;;;;5024076;28;20059;-81
2023/03/28 08:48:25;;;;;;;8.32;3.08;;;5.60;99.90;;;;;;5031021;28;20521;-79
2023/03/28 08:51:04;;;;;;;11.73;3.17;;;5.90;99.90;;;;;;5017434;28;20390;-80
2023/03/28 08:53:38;;;;;;;6.18;2.85;;;6.00;99.90;;;;;;5027198;28;20025;-79
2023/03/28 08:56:05;;;;;;;11.50;3.42;;;6.10;99.90;;;;;;5023378;28;20041;-78
2023/03/28 08:58:41;;;;;;;7.93;2.38;;;6.10;99.90;;;;;;5041546;28;20025;-79
2023/03/28 09:01:08;;;;;;;7.18;2.47;;;7.00;99.90;;;;;;5020078;28;20054;-79
2023/03/28 09:03:34;;;;;;;9.43;2.65;;;6.90;99.90;;;;;;5014489;28;20026;-78
2023/03/28 09:06:22;;;;;;;19.30;2.55;;;7.00;99.90;;;;;;5006701;28;20109;-78
2023/03/28 09:09:03;;;;;;;5.75;2.00;;;7.30;99.90;;;;;;5023503;28;20025;-78
2023/03/28 09:11:53;;;;;;;12.25;3.15;;;7.40;99.90;;;;;;5006370;28;20037;-78
2023/03/28 09:14:18;;;;;;;4.07;2.53;;;7.60;99.90;;;;;;5021601;28;20494;-79
2023/03/28 09:17:17;;;;;;;3.55;1.40;;;7.40;99.90;;;;;;5023461;28;20040;-78
2023/03/28 09:20:10;;;;;;;4.65;1.55;;;7.40;99.90;;;;;;5019348;28;20386;-79
2023/03/28 09:22:59;;;;;;;7.10;1.70;;;7.40;99.90;;;;;;5019620;28;20033;-78
2023/03/28 09:25:39;;;;;;;9.18;1.77;;;7.80;99.90;;;;;;5022057;28;20115;-78
2023/03/28 09:28:24;;;;;;;4.40;1.30;;;7.80;99.90;;;;;;5007498;28;20030;-79
2023/03/28 09:30:50;;;;;;;4.53;1.65;;;7.70;99.90;;;;;;5028189;28;20108;-80
2023/03/28 09:33:30;;;;;;;7.13;2.35;;;7.70;99.90;;;;;;5019664;28;20579;-79
2023/03/28 09:35:58;;;;;;;5.30;1.90;;;7.80;99.90;;;;;;4996293;28;20041;-79
2023/03/28 09:38:30;;;;;;;9.23;2.10;;;7.90;99.90;;;;;;5027954;28;20040;-79
2023/03/28 09:40:56;;;;;;;7.43;2.95;;;8.00;99.90;;;;;;5017229;28;20102;-80
2023/03/28 09:43:43;;;;;;;7.38;2.15;;;7.90;99.90;;;;;;5016359;28;20045;-81
2023/03/28 09:46:12;;;;;;;5.47;1.90;;;8.30;99.90;;;;;;5030038;28;20084;-82
2023/03/28 09:48:38;;;;;;;8.85;2.33;;;8.10;99.90;;;;;;5015382;28;20026;-81
2023/03/28 09:51:04;;;;;;;1.63;0.60;;;8.50;99.90;;;;;;5011413;28;20478;-80
2023/03/28 09:53:34;;;;;;;5.15;1.65;;;8.60;99.90;;;;;;5007086;28;20029;-81
2023/03/28 09:56:02;;;;;;;5.72;1.30;;;8.60;99.90;;;;;;5019139;28;20090;-80
2023/03/28 09:58:28;;;;;;;8.50;1.80;;;9.40;99.90;;;;;;5025660;28;20032;-80
2023/03/28 10:00:54;;;;;;;11.63;1.70;;;8.60;99.90;;;;;;5026473;28;20030;-82
2023/03/28 10:03:28;;;;;;;3.67;1.50;;;8.70;99.90;;;;;;5004553;28;20030;-81
2023/03/28 10:05:57;;;;;;;7.28;1.27;;;9.00;99.90;;;;;;5024619;28;20564;-82
2023/03/28 10:08:31;;;;;;;6.47;1.60;;;9.10;99.90;;;;;;5004643;28;20065;-81
2023/03/28 10:11:03;;;;;;;3.60;1.05;;;9.30;99.90;;;;;;5008038;28;20041;-81
2023/03/28 10:13:36;;;;;;;7.93;2.17;;;9.20;99.90;;;;;;5016175;28;20037;-82
2023/03/28 10:16:02;;;;;;;3.20;1.55;;;9.40;99.90;;;;;;5019628;28;20034;-81
2023/03/28 10:18:28;;;;;;;5.88;1.77;;;9.40;99.90;;;;;;5022002;28;20561;-80
2023/03/28 10:20:55;;;;;;;4.78;1.45;;;9.50;99.90;;;;;;5022064;28;20046;-81
2023/03/28 10:23:21;;;;;;;9.07;2.08;;;9.80;99.90;;;;;;5033590;28;20025;-81
2023/03/28 10:25:50;;;;;;;9.68;2.00;;;9.80;99.90;;;;;;5008975;28;20445;-80
2023/03/28 10:28:19;;;;;;;8.65;2.00;;;10.00;99.90;;;;;;5033911;28;20133;-81
2023/03/28 10:30:51;;;;;;;2.78;1.45;;;9.70;99.90;;;;;;4993794;28;20049;-80
2023/03/28 10:33:17;;;;;;;8.90;2.03;;;9.90;99.90;;;;;;5023628;28;20520;-81
2023/03/28 10:36:08;;;;;;;8.10;1.85;;;10.30;99.90;;;;;;5019322;28;20033;-79
2023/03/28 10:38:46;;;;;;;9.13;1.58;;;10.40;99.90;;;;;;5023358;28;20038;-80
2023/03/28 10:41:22;;;;;;;6.80;1.52;;;11.00;99.90;;;;;;5034729;28;20037;-80
2023/03/28 10:43:47;;;;;;;;;;;10.80;99.90;;;;;;5009583;28;20089;-82
2023/03/28 10:46:34;;;;;;;4.60;1.97;;;10.50;99.90;;;;;;5021287;28;20375;-81
2023/03/28 10:49:00;;;;;;;9.80;1.98;;;10.80;99.90;;;;;;5021356;28;20386;-82
2023/03/28 10:51:26;;;;;;;8.20;2.00;;;11.30;99.90;;;;;;5035301;28;20034;-80
2023/03/28 10:54:04;;;;;;;7.22;1.67;;;11.60;99.90;;;;;;4998528;28;20087;-80
2023/03/28 10:56:34;;;;;;;6.20;1.40;;;11.60;99.90;;;;;;5025168;28;20033;-80
2023/03/28 10:59:20;;;;;;;2.22;1.33;;;11.60;99.90;;;;;;5019577;28;20490;-80
2023/03/28 11:01:49;;;;;;;7.57;1.73;;;11.50;99.90;;;;;;5009418;28;20305;-80
2023/03/28 11:04:38;;;;;;;5.63;1.63;;;11.90;99.90;;;;;;5016166;28;20106;-80
2023/03/28 11:07:09;;;;;;;5.10;1.38;;;11.90;99.90;;;;;;5008641;28;20061;-81
2023/03/28 11:09:55;;;;;;;3.78;1.33;;;12.00;99.90;;;;;;5017453;28;20168;-80
2023/03/28 11:12:50;;;;;;;5.20;1.38;;;12.20;99.90;;;;;;5019778;28;20077;-80
2023/03/28 11:15:31;;;;;;;5.63;1.42;;;12.20;99.90;;;;;;5004177;28;20575;-80
2023/03/28 11:18:20;;;;;;;4.28;1.30;;;12.20;99.90;;;;;;4993962;28;20048;-80
2023/03/28 11:20:51;;;;;;;3.42;0.95;;;12.30;99.90;;;;;;5024503;28;20087;-82
2023/03/28 11:23:30;;;;;;;2.25;0.77;;;12.60;99.90;;;;;;5033810;28;20452;-82
2023/03/28 11:26:26;;;;;;;4.32;0.98;;;12.30;99.90;;;;;;5025962;28;20034;-80
2023/03/28 11:29:33;;;;;;;0.70;0.57;;;12.60;99.90;;;;;;5027111;28;20033;-80
2023/03/28 11:32:07;;;;;;;4.72;1.30;;;12.60;99.90;;;;;;5019021;28;20129;-81
2023/03/28 11:34:36;;;;;;;5.50;1.08;;;12.60;99.90;;;;;;5023929;28;20038;-80
2023/03/28 11:37:07;;;;;;;3.97;1.25;;;12.70;99.90;;;;;;5034438;28;20351;-81
2023/03/28 11:39:44;;;;;;;8.68;1.30;;;12.70;99.90;;;;;;5026978;28;20100;-80
2023/03/28 11:42:13;;;;;;;2.55;1.02;;;12.80;99.90;;;;;;5036481;28;20064;-81
2023/03/28 11:44:54;;;;;;;4.88;0.95;;;13.30;99.90;;;;;;5010137;28;20041;-81
2023/03/28 11:47:21;;;;;;;3.92;1.10;;;12.90;99.90;;;;;;5007883;28;20061;-81
2023/03/28 11:49:52;;;;;;;5.43;1.25;;;13.40;99.90;;;;;;4998637;28;20060;-82
2023/03/28 11:52:29;;;;;;;4.50;1.30;;;12.70;99.90;;;;;;5023025;28;20457;-81
2023/03/28 11:55:03;;;;;;;3.38;0.90;;;13.20;99.90;;;;;;5023718;28;20116;-81
2023/03/28 11:57:49;;;;;;;2.90;1.10;;;13.20;99.90;;;;;;5016059;28;20041;-81
2023/03/28 12:00:17;;;;;;;5.10;0.80;;;13.30;99.90;;;;;;5034112;28;20034;-81
2023/03/28 12:02:50;;;;;;;2.10;0.82;;;12.80;99.90;;;;;;5036082;28;20041;-81
2023/03/28 12:05:35;;;;;;;3.33;0.95;;;12.90;99.90;;;;;;5020003;28;20038;-81
2023/03/28 12:08:20;;;;;;;2.80;0.93;;;13.40;99.90;;;;;;5025548;28;20030;-81
2023/03/28 12:10:49;;;;;;;3.67;0.85;;;13.30;99.90;;;;;;5023744;28;20041;-81
2023/03/28 12:13:36;;;;;;;1.90;0.45;;;13.50;99.90;;;;;;5018427;28;20038;-80
2023/03/28 12:16:08;;;;;;;1.73;0.70;;;13.70;99.90;;;;;;5020786;28;20455;-81
2023/03/28 12:18:42;;;;;;;3.25;0.88;;;13.50;99.90;;;;;;5022007;28;20474;-80
2023/03/28 12:21:16;;;;;;;4.53;0.98;;;13.70;99.90;;;;;;5022061;28;20030;-81
2023/03/28 12:24:23;;;;;;;2.10;0.68;;;13.80;99.90;;;;;;5013828;28;20050;-80
2023/03/28 12:26:55;;;;;;;3.97;1.00;;;13.60;99.90;;;;;;4959780;28;20061;-78
2023/03/28 12:29:33;;;;;;;6.47;1.13;;;13.60;99.90;;;;;;4973201;28;20039;-80
2023/03/28 12:32:23;;;;;;;6.10;1.60;;;13.50;99.90;;;;;;4998610;28;20033;-81
2023/03/28 12:35:11;;;;;;;5.75;1.27;;;13.70;99.30;;;;;;5038747;28;20087;-78
2023/03/28 12:37:58;;;;;;;4.68;1.77;;;13.70;99.70;;;;;;5009612;28;20034;-81
2023/03/28 12:40:42;;;;;;;4.15;1.02;;;13.70;97.50;;;;;;5034855;28;20149;-77
2023/03/28 12:43:09;;;;;;;2.50;0.80;;;13.90;99.20;;;;;;5022930;28;20120;-80
2023/03/28 12:45:43;;;;;;;5.85;1.77;;;13.60;97.20;;;;;;5015821;28;20030;-81
2023/03/28 12:48:12;;;;;;;6.85;1.35;;;13.60;95.60;;;;;;5018669;28;20053;-80
2023/03/28 12:50:45;;;;;;;3.25;1.38;;;13.50;96.90;;;;;;5021510;28;20025;-79
2023/03/28 12:53:11;;;;;;;5.40;2.20;;;13.30;96.50;;;;;;5045935;28;20084;-78
2023/03/28 12:55:39;;;;;;;4.15;1.70;;;13.50;99.90;;;;;;5017236;28;20536;-78
2023/03/28 12:58:29;;;;;;;7.30;2.40;;;13.70;99.20;;;;;;5032051;28;20060;-78
2023/03/28 13:01:20;;;;;;;9.52;1.60;;;13.60;96.00;;;;;;5033055;28;20055;-78
2023/03/28 13:03:51;;;;;;;5.32;2.05;;;13.90;97.20;;;;;;5020894;28;20025;-79
2023/03/28 13:06:41;;;;;;;4.53;1.63;;;14.00;95.00;;;;;;5036075;28;20041;-79
2023/03/28 13:09:22;;;;;;;8.20;2.28;;;13.80;93.20;;;;;;5017220;28;20044;-79